createdAt,value
2022-10-08T00:01:57.187Z,13.20
2022-10-08T00:06:56.873Z,14.60
2022-10-08T00:11:58.047Z,14.10
2022-10-08T00:16:56.956Z,12.80
2022-10-08T00:21:58.741Z,13.80
2022-10-08T00:27:00.599Z,15.70
2022-10-08T00:32:00.899Z,12.30
2022-10-08T00:37:00.573Z,14.80
2022-10-08T00:42:02.386Z,13.00
2022-10-08T00:47:01.675Z,13.20
2022-10-08T00:52:01.919Z,13.60
2022-10-08T00:57:01.315Z,12.80
2022-10-08T01:02:09.311Z,13.00
2022-10-08T01:07:20.506Z,17.90
2022-10-08T01:12:36.405Z,14.00
2022-10-08T01:17:48.497Z,14.70
2022-10-08T01:23:10.246Z,14.10
2022-10-08T01:28:23.539Z,14.30
2022-10-08T01:33:33.557Z,14.40
2022-10-08T01:38:41.848Z,14.90
2022-10-08T01:43:51.708Z,13.60
2022-10-08T01:48:53.926Z,15.50
2022-10-08T01:53:56.251Z,14.10
2022-10-08T01:59:02.205Z,14.70
2022-10-08T02:04:20.103Z,17.50
2022-10-08T02:09:20.019Z,17.10
2022-10-08T02:14:22.025Z,13.90
2022-10-08T02:19:35.986Z,12.90
2022-10-08T02:24:44.502Z,13.70
2022-10-08T02:30:00.250Z,12.80
2022-10-08T02:35:09.326Z,16.00
2022-10-08T02:40:14.646Z,14.30
2022-10-08T02:45:22.159Z,14.30
2022-10-08T02:50:29.164Z,11.10
2022-10-08T02:55:47.394Z,15.50
2022-10-08T03:00:57.034Z,13.50
2022-10-08T03:05:58.880Z,12.70
2022-10-08T03:11:00.212Z,11.90
2022-10-08T03:16:01.151Z,15.50
2022-10-08T03:21:00.889Z,14.70
2022-10-08T03:26:00.148Z,13.70
2022-10-08T03:31:09.399Z,15.90
2022-10-08T03:36:10.780Z,17.30
2022-10-08T03:41:11.801Z,13.90
2022-10-08T03:46:12.892Z,13.90
2022-10-08T03:51:16.309Z,15.40
2022-10-08T03:56:20.608Z,15.20
2022-10-08T04:01:21.986Z,13.40
2022-10-08T04:06:21.910Z,13.80
2022-10-08T04:11:22.572Z,15.20
2022-10-08T04:16:23.099Z,14.00
2022-10-08T04:21:23.189Z,14.60
2022-10-08T04:26:23.308Z,13.60
2022-10-08T04:31:24.848Z,15.20
2022-10-08T04:36:26.162Z,16.00
2022-10-08T04:41:27.914Z,16.80
2022-10-08T04:46:27.473Z,14.80
2022-10-08T04:51:29.401Z,15.40
2022-10-08T04:56:31.968Z,15.90
2022-10-08T05:01:32.542Z,16.80
2022-10-08T05:06:36.000Z,17.60
2022-10-08T05:11:36.722Z,15.50
2022-10-08T05:16:36.007Z,17.20
2022-10-08T05:21:36.411Z,15.50
2022-10-08T05:26:58.097Z,15.50
2022-10-08T05:31:58.908Z,18.90
2022-10-08T05:36:58.228Z,15.80
2022-10-08T05:41:57.585Z,19.70
2022-10-08T05:46:56.761Z,15.00
2022-10-08T05:51:56.134Z,17.80
2022-10-08T05:56:55.907Z,15.60
2022-10-08T06:01:55.289Z,16.40
2022-10-08T06:06:54.456Z,16.60
2022-10-08T06:11:54.606Z,17.30
2022-10-08T06:16:53.776Z,16.70
2022-10-08T06:21:55.247Z,18.10
2022-10-08T06:26:53.970Z,18.60
2022-10-08T06:31:54.134Z,17.90
2022-10-08T06:36:54.077Z,16.20
2022-10-08T06:41:53.238Z,17.40
2022-10-08T06:46:53.324Z,17.70
2022-10-08T06:51:53.442Z,14.10
2022-10-08T06:56:53.280Z,16.40
2022-10-08T07:01:53.713Z,17.30
2022-10-08T07:06:53.087Z,16.60
2022-10-08T07:11:55.672Z,16.80
2022-10-08T07:16:54.362Z,16.10
2022-10-08T07:21:56.828Z,16.00
2022-10-08T07:27:00.940Z,16.00
2022-10-08T07:32:00.999Z,14.30
2022-10-08T07:37:00.768Z,14.40
2022-10-08T07:42:00.812Z,18.10
2022-10-08T07:47:00.120Z,15.00
2022-10-08T07:51:59.862Z,13.10
2022-10-08T07:56:58.942Z,19.30
2022-10-08T08:01:58.299Z,15.10
2022-10-08T08:06:57.258Z,15.60
2022-10-08T08:11:58.323Z,15.70
2022-10-08T08:16:58.233Z,17.50
2022-10-08T08:21:57.776Z,14.80
2022-10-08T08:26:57.885Z,16.40
2022-10-08T08:31:57.318Z,16.20
2022-10-08T08:36:57.781Z,13.60
2022-10-08T08:42:33.534Z,13.90
2022-10-08T08:47:43.641Z,14.30
2022-10-08T08:52:46.433Z,14.70
2022-10-08T08:57:57.471Z,11.60
2022-10-08T09:03:05.603Z,13.80
2022-10-08T09:08:19.907Z,12.50
2022-10-08T09:13:27.316Z,16.00
2022-10-08T09:18:27.378Z,14.00
2022-10-08T09:23:28.583Z,10.90
2022-10-08T09:28:47.671Z,12.80
2022-10-08T09:33:55.171Z,13.10
2022-10-08T09:39:05.036Z,12.30
2022-10-08T09:44:39.964Z,12.20
2022-10-08T09:49:41.386Z,11.30
2022-10-08T09:54:48.942Z,11.60
2022-10-08T09:59:59.467Z,11.60
2022-10-08T10:05:02.610Z,11.80
2022-10-08T10:10:04.196Z,11.00
2022-10-08T10:15:15.854Z,10.70
2022-10-08T10:20:22.933Z,12.70
2022-10-08T10:25:36.265Z,12.90
2022-10-08T10:30:51.225Z,10.90
2022-10-08T10:35:57.177Z,12.80
2022-10-08T10:41:11.632Z,11.20
2022-10-08T10:46:36.207Z,10.10
2022-10-08T10:52:06.748Z,9.00
2022-10-08T10:57:14.884Z,11.80
2022-10-08T11:02:29.020Z,11.40
2022-10-08T11:07:47.874Z,12.20
2022-10-08T11:12:58.425Z,11.60
2022-10-08T11:18:19.570Z,11.60
2022-10-08T11:23:43.373Z,10.60
2022-10-08T11:28:56.900Z,11.00
2022-10-08T11:33:58.716Z,10.90
2022-10-08T11:39:11.842Z,12.70
2022-10-08T11:44:15.078Z,11.70
2022-10-08T11:49:52.591Z,13.60
2022-10-08T11:54:56.176Z,12.40
2022-10-08T12:00:08.345Z,14.30
2022-10-08T12:10:46.575Z,13.30
2022-10-08T12:15:59.182Z,14.00
2022-10-08T12:21:54.297Z,11.30
2022-10-08T12:27:28.990Z,11.60
2022-10-08T12:32:28.149Z,11.30
2022-10-08T12:37:53.567Z,11.20
2022-10-08T12:42:54.824Z,13.00
2022-10-08T12:48:00.347Z,12.60
2022-10-08T12:52:58.953Z,12.50
2022-10-08T12:57:55.317Z,14.30
2022-10-08T13:03:04.438Z,10.40
2022-10-08T13:08:16.934Z,12.80
2022-10-08T13:13:42.529Z,12.80
2022-10-08T13:18:41.582Z,13.50
2022-10-08T13:23:43.938Z,12.00
2022-10-08T13:28:59.474Z,15.30
2022-10-08T13:33:55.189Z,16.30
2022-10-08T13:38:50.662Z,14.90
2022-10-08T13:43:46.235Z,11.80
2022-10-08T13:48:45.986Z,11.00
2022-10-08T13:53:45.048Z,14.00
2022-10-08T13:58:39.566Z,13.50
2022-10-08T14:03:34.624Z,11.20
2022-10-08T14:08:31.423Z,17.10
2022-10-08T14:13:29.181Z,13.10
2022-10-08T14:18:24.420Z,14.70
2022-10-08T14:23:21.682Z,12.70
2022-10-08T14:28:17.711Z,12.90
2022-10-08T14:33:13.704Z,17.70
2022-10-08T14:38:09.595Z,12.20
2022-10-08T14:43:05.862Z,14.00
2022-10-08T14:48:01.468Z,13.70
2022-10-08T14:52:56.954Z,12.50
2022-10-08T14:57:52.367Z,12.30
2022-10-08T15:02:49.913Z,13.80
2022-10-08T15:07:45.726Z,11.20
2022-10-08T15:12:40.835Z,15.30
2022-10-08T15:17:36.428Z,14.60
2022-10-08T15:22:30.920Z,14.60
2022-10-08T15:27:25.798Z,13.40
2022-10-08T15:32:20.776Z,13.10
2022-10-08T15:37:16.140Z,12.50
2022-10-08T15:42:14.121Z,12.40
2022-10-08T15:47:11.539Z,12.60
2022-10-08T15:52:10.098Z,13.50
2022-10-08T15:57:08.285Z,11.10
2022-10-08T16:02:04.711Z,12.80
2022-10-08T16:07:00.025Z,16.70
2022-10-08T16:11:55.387Z,13.80
2022-10-08T16:16:51.476Z,12.60
2022-10-08T16:21:50.018Z,13.40
2022-10-08T16:26:46.636Z,14.60
2022-10-08T16:31:44.485Z,12.00
2022-10-08T16:36:39.982Z,14.70
2022-10-08T16:41:36.926Z,13.00
2022-10-08T16:46:35.768Z,14.70
2022-10-08T16:51:35.585Z,14.60
2022-10-08T16:56:35.265Z,13.90
2022-10-08T17:01:30.862Z,14.10
2022-10-08T17:06:28.586Z,16.90
2022-10-08T17:11:24.109Z,16.30
2022-10-08T17:16:22.305Z,17.00
2022-10-08T17:21:17.971Z,19.20
2022-10-08T17:26:16.182Z,18.70
2022-10-08T17:31:17.391Z,19.90
2022-10-08T17:36:16.192Z,12.20
2022-10-08T17:41:18.368Z,19.50
2022-10-08T17:46:17.668Z,20.60
2022-10-08T17:51:15.408Z,13.20
2022-10-08T17:56:13.930Z,18.80
2022-10-08T18:01:16.206Z,24.20
2022-10-08T18:06:13.206Z,20.80
2022-10-08T18:11:13.795Z,19.90
2022-10-08T18:16:13.257Z,18.50
2022-10-08T18:21:12.815Z,19.40
2022-10-08T18:26:21.049Z,18.40
2022-10-08T18:31:17.980Z,21.20
2022-10-08T18:36:18.784Z,18.50
2022-10-08T18:41:30.905Z,19.20
2022-10-08T18:46:27.395Z,16.70
2022-10-08T18:51:26.448Z,17.30
2022-10-08T18:56:28.014Z,19.60
2022-10-08T19:01:27.814Z,19.60
2022-10-08T19:06:26.398Z,16.60
2022-10-08T19:11:27.145Z,12.90
2022-10-08T19:16:23.152Z,13.00
2022-10-08T19:21:20.829Z,16.70
2022-10-08T19:26:16.352Z,16.30
2022-10-08T19:31:18.066Z,17.00
2022-10-08T19:36:14.610Z,14.40
2022-10-08T19:41:11.560Z,19.40
2022-10-08T19:46:08.607Z,13.20
2022-10-08T19:51:07.851Z,15.20
2022-10-08T19:56:08.689Z,17.00
2022-10-08T20:01:08.027Z,14.60
2022-10-08T20:06:08.166Z,14.50
2022-10-08T20:11:07.341Z,12.30
2022-10-08T20:16:07.715Z,15.60
2022-10-08T20:21:07.301Z,12.50
2022-10-08T20:26:15.621Z,18.90
2022-10-08T20:31:15.719Z,14.80
2022-10-08T20:36:14.631Z,13.60
2022-10-08T20:41:12.089Z,11.30
2022-10-08T20:46:10.924Z,13.20
2022-10-08T20:51:11.119Z,12.70
2022-10-08T20:56:08.765Z,13.10
2022-10-08T21:01:11.818Z,11.40
2022-10-08T21:06:09.549Z,11.00
2022-10-08T21:11:07.473Z,12.90
2022-10-08T21:16:06.768Z,13.00
2022-10-08T21:21:05.197Z,14.30
2022-10-08T21:26:12.474Z,10.60
2022-10-08T21:31:10.414Z,13.50
2022-10-08T21:36:08.205Z,15.60
2022-10-08T21:41:11.706Z,8.80
2022-10-08T21:46:08.158Z,11.50
2022-10-08T21:51:08.816Z,11.10
2022-10-08T21:56:07.254Z,12.70
2022-10-08T22:01:02.121Z,9.90
2022-10-08T22:06:01.225Z,10.70
2022-10-08T22:10:57.788Z,11.30
2022-10-08T22:15:55.936Z,11.50
2022-10-08T22:20:51.868Z,9.90
2022-10-08T22:25:56.147Z,8.60
2022-10-08T22:30:54.045Z,6.70
2022-10-08T22:35:49.386Z,8.10
2022-10-08T22:40:44.610Z,6.40
2022-10-08T22:45:41.055Z,11.30
2022-10-08T22:50:38.348Z,9.50
2022-10-08T22:55:33.318Z,8.40
2022-10-08T23:00:28.986Z,7.60
2022-10-08T23:05:24.239Z,6.80
2022-10-08T23:10:20.360Z,6.80
2022-10-08T23:15:15.708Z,6.10
2022-10-08T23:20:12.354Z,7.40
2022-10-08T23:25:09.822Z,6.80
2022-10-08T23:30:20.668Z,7.60
2022-10-08T23:35:22.248Z,7.50
2022-10-08T23:40:18.905Z,8.10
2022-10-08T23:45:14.113Z,6.90
2022-10-08T23:50:10.585Z,7.00
2022-10-08T23:55:06.877Z,7.00
